sensor_id;sensor_type;location;lat;lon;timestamp;pressure;altitude;pressure_sealevel;temperature;humidity
54592;BME280;40488;48.558;18.150;2023-04-06T00:00:40;99849.38;;;2.45;48.38
54592;BME280;40488;48.558;18.150;2023-04-06T00:03:09;99854.94;;;2.36;48.57
54592;BME280;40488;48.558;18.150;2023-04-06T00:05:38;99855.44;;;2.26;48.62
54592;BME280;40488;48.558;18.150;2023-04-06T00:08:07;99849.72;;;2.30;48.61
54592;BME280;40488;48.558;18.150;2023-04-06T00:10:35;99850.50;;;2.29;49.32
54592;BME280;40488;48.558;18.150;2023-04-06T00:13:05;99850.41;;;2.26;49.08
54592;BME280;40488;48.558;18.150;2023-04-06T00:15:36;99851.16;;;2.24;49.35
54592;BME280;40488;48.558;18.150;2023-04-06T00:18:04;99853.66;;;2.24;49.31
54592;BME280;40488;48.558;18.150;2023-04-06T00:20:33;99846.66;;;2.15;49.57
54592;BME280;40488;48.558;18.150;2023-04-06T00:23:02;99842.53;;;2.17;48.99
54592;BME280;40488;48.558;18.150;2023-04-06T00:25:31;99837.69;;;2.23;49.07
54592;BME280;40488;48.558;18.150;2023-04-06T00:28:00;99831.75;;;2.21;49.08
54592;BME280;40488;48.558;18.150;2023-04-06T00:30:29;99828.44;;;2.22;49.06
54592;BME280;40488;48.558;18.150;2023-04-06T00:32:59;99831.88;;;2.24;48.79
54592;BME280;40488;48.558;18.150;2023-04-06T00:35:29;99833.38;;;2.19;49.52
54592;BME280;40488;48.558;18.150;2023-04-06T00:37:58;99825.69;;;2.16;49.61
54592;BME280;40488;48.558;18.150;2023-04-06T00:40:27;99823.00;;;2.10;49.54
54592;BME280;40488;48.558;18.150;2023-04-06T00:42:56;99817.94;;;2.10;49.24
54592;BME280;40488;48.558;18.150;2023-04-06T00:45:25;99824.47;;;2.05;49.70
54592;BME280;40488;48.558;18.150;2023-04-06T00:47:53;99829.31;;;1.99;49.42
54592;BME280;40488;48.558;18.150;2023-04-06T00:50:24;99827.59;;;1.98;49.82
54592;BME280;40488;48.558;18.150;2023-04-06T00:52:54;99827.59;;;1.98;49.79
54592;BME280;40488;48.558;18.150;2023-04-06T00:55:26;99824.91;;;1.93;49.81
54592;BME280;40488;48.558;18.150;2023-04-06T00:57:57;99836.47;;;1.88;50.19
54592;BME280;40488;48.558;18.150;2023-04-06T01:00:30;99826.94;;;1.80;50.47
54592;BME280;40488;48.558;18.150;2023-04-06T01:03:02;99831.16;;;1.81;50.32
54592;BME280;40488;48.558;18.150;2023-04-06T01:05:40;99832.72;;;1.77;50.93
54592;BME280;40488;48.558;18.150;2023-04-06T01:08:24;99830.38;;;1.82;50.90
54592;BME280;40488;48.558;18.150;2023-04-06T01:11:04;99823.50;;;1.78;50.30
54592;BME280;40488;48.558;18.150;2023-04-06T01:13:33;99828.53;;;1.78;50.56
54592;BME280;40488;48.558;18.150;2023-04-06T01:16:05;99828.31;;;1.72;50.90
54592;BME280;40488;48.558;18.150;2023-04-06T01:18:45;99830.72;;;1.69;50.89
54592;BME280;40488;48.558;18.150;2023-04-06T01:21:22;99825.47;;;1.63;50.84
54592;BME280;40488;48.558;18.150;2023-04-06T01:24:18;99826.06;;;1.56;50.78
54592;BME280;40488;48.558;18.150;2023-04-06T01:27:00;99825.81;;;1.50;51.03
54592;BME280;40488;48.558;18.150;2023-04-06T01:29:55;99823.75;;;1.40;51.42
54592;BME280;40488;48.558;18.150;2023-04-06T01:32:59;99825.22;;;1.34;51.97
54592;BME280;40488;48.558;18.150;2023-04-06T01:35:37;99821.22;;;1.40;51.90
54592;BME280;40488;48.558;18.150;2023-04-06T01:38:16;99828.91;;;1.43;51.70
54592;BME280;40488;48.558;18.150;2023-04-06T01:40:49;99822.22;;;1.43;51.72
54592;BME280;40488;48.558;18.150;2023-04-06T01:43:20;99819.41;;;1.35;51.62
54592;BME280;40488;48.558;18.150;2023-04-06T01:46:01;99816.69;;;1.29;51.95
54592;BME280;40488;48.558;18.150;2023-04-06T01:48:34;99816.31;;;1.20;52.13
54592;BME280;40488;48.558;18.150;2023-04-06T01:51:26;99821.97;;;1.15;52.19
54592;BME280;40488;48.558;18.150;2023-04-06T01:53:59;99823.44;;;1.10;52.64
54592;BME280;40488;48.558;18.150;2023-04-06T01:56:39;99823.28;;;1.05;52.42
54592;BME280;40488;48.558;18.150;2023-04-06T01:59:21;99818.91;;;1.01;52.77
54592;BME280;40488;48.558;18.150;2023-04-06T02:01:50;99811.19;;;0.97;53.17
54592;BME280;40488;48.558;18.150;2023-04-06T02:04:20;99818.84;;;1.00;52.69
54592;BME280;40488;48.558;18.150;2023-04-06T02:06:54;99819.41;;;0.93;53.40
54592;BME280;40488;48.558;18.150;2023-04-06T02:09:26;99817.50;;;0.87;53.44
54592;BME280;40488;48.558;18.150;2023-04-06T02:11:56;99815.13;;;0.90;53.20
54592;BME280;40488;48.558;18.150;2023-04-06T02:14:26;99814.41;;;0.93;53.65
54592;BME280;40488;48.558;18.150;2023-04-06T02:16:58;99807.94;;;0.99;52.94
54592;BME280;40488;48.558;18.150;2023-04-06T02:19:27;99813.78;;;0.98;53.44
54592;BME280;40488;48.558;18.150;2023-04-06T02:21:56;99808.06;;;1.02;53.11
54592;BME280;40488;48.558;18.150;2023-04-06T02:24:25;99802.88;;;0.98;53.55
54592;BME280;40488;48.558;18.150;2023-04-06T02:26:54;99806.13;;;0.95;53.71
54592;BME280;40488;48.558;18.150;2023-04-06T02:29:24;99807.03;;;0.97;53.57
54592;BME280;40488;48.558;18.150;2023-04-06T02:31:53;99802.00;;;0.97;53.61
54592;BME280;40488;48.558;18.150;2023-04-06T02:34:23;99801.16;;;0.97;53.21
54592;BME280;40488;48.558;18.150;2023-04-06T02:36:54;99790.00;;;0.90;53.95
54592;BME280;40488;48.558;18.150;2023-04-06T02:39:23;99797.28;;;0.84;54.01
54592;BME280;40488;48.558;18.150;2023-04-06T02:41:52;99804.09;;;0.87;54.07
54592;BME280;40488;48.558;18.150;2023-04-06T02:44:25;99801.66;;;0.88;53.81
54592;BME280;40488;48.558;18.150;2023-04-06T02:46:54;99803.13;;;0.83;54.09
54592;BME280;40488;48.558;18.150;2023-04-06T02:49:25;99796.16;;;0.76;54.62
54592;BME280;40488;48.558;18.150;2023-04-06T02:51:56;99805.09;;;0.70;54.57
54592;BME280;40488;48.558;18.150;2023-04-06T02:54:29;99794.19;;;0.69;54.58
54592;BME280;40488;48.558;18.150;2023-04-06T02:56:59;99801.72;;;0.69;54.53
54592;BME280;40488;48.558;18.150;2023-04-06T02:59:40;99803.97;;;0.63;54.90
54592;BME280;40488;48.558;18.150;2023-04-06T03:02:22;99805.56;;;0.61;55.08
54592;BME280;40488;48.558;18.150;2023-04-06T03:04:52;99802.28;;;0.62;54.85
54592;BME280;40488;48.558;18.150;2023-04-06T03:07:31;99793.94;;;0.63;55.14
54592;BME280;40488;48.558;18.150;2023-04-06T03:10:00;99791.41;;;0.63;54.96
54592;BME280;40488;48.558;18.150;2023-04-06T03:12:31;99787.81;;;0.56;54.88
54592;BME280;40488;48.558;18.150;2023-04-06T03:15:12;99793.69;;;0.57;54.98
54592;BME280;40488;48.558;18.150;2023-04-06T03:17:46;99785.63;;;0.64;54.99
54592;BME280;40488;48.558;18.150;2023-04-06T03:20:26;99781.06;;;0.55;55.03
54592;BME280;40488;48.558;18.150;2023-04-06T03:22:54;99791.31;;;0.60;55.10
54592;BME280;40488;48.558;18.150;2023-04-06T03:25:27;99785.34;;;0.58;54.92
54592;BME280;40488;48.558;18.150;2023-04-06T03:28:02;99780.34;;;0.58;55.03
54592;BME280;40488;48.558;18.150;2023-04-06T03:30:36;99782.19;;;0.62;55.19
54592;BME280;40488;48.558;18.150;2023-04-06T03:33:05;99777.94;;;0.61;54.83
54592;BME280;40488;48.558;18.150;2023-04-06T03:35:42;99783.16;;;0.65;54.99
54592;BME280;40488;48.558;18.150;2023-04-06T03:38:11;99779.91;;;0.68;54.96
54592;BME280;40488;48.558;18.150;2023-04-06T03:40:39;99783.28;;;0.68;54.80
54592;BME280;40488;48.558;18.150;2023-04-06T03:43:10;99780.59;;;0.64;54.68
54592;BME280;40488;48.558;18.150;2023-04-06T03:45:40;99773.84;;;0.63;54.64
54592;BME280;40488;48.558;18.150;2023-04-06T03:48:09;99774.53;;;0.59;54.79
54592;BME280;40488;48.558;18.150;2023-04-06T03:50:38;99778.63;;;0.57;54.78
54592;BME280;40488;48.558;18.150;2023-04-06T03:53:07;99777.66;;;0.53;55.04
54592;BME280;40488;48.558;18.150;2023-04-06T03:55:36;99781.69;;;0.50;55.06
54592;BME280;40488;48.558;18.150;2023-04-06T03:58:05;99782.75;;;0.55;55.15
54592;BME280;40488;48.558;18.150;2023-04-06T04:00:34;99781.28;;;0.60;54.93
54592;BME280;40488;48.558;18.150;2023-04-06T04:03:04;99776.31;;;0.61;54.84
54592;BME280;40488;48.558;18.150;2023-04-06T04:05:33;99782.19;;;0.62;54.91
54592;BME280;40488;48.558;18.150;2023-04-06T04:08:02;99775.94;;;0.52;55.04
54592;BME280;40488;48.558;18.150;2023-04-06T04:10:31;99788.19;;;0.45;55.72
54592;BME280;40488;48.558;18.150;2023-04-06T04:13:00;99791.47;;;0.44;55.49
54592;BME280;40488;48.558;18.150;2023-04-06T04:15:29;99790.63;;;0.43;55.50
54592;BME280;40488;48.558;18.150;2023-04-06T04:17:58;99786.31;;;0.41;55.70
54592;BME280;40488;48.558;18.150;2023-04-06T04:20:28;99796.25;;;0.38;56.08
54592;BME280;40488;48.558;18.150;2023-04-06T04:22:57;99784.25;;;0.31;56.11
54592;BME280;40488;48.558;18.150;2023-04-06T04:25:29;99790.00;;;0.28;56.16
54592;BME280;40488;48.558;18.150;2023-04-06T04:27:57;99784.78;;;0.24;56.31
54592;BME280;40488;48.558;18.150;2023-04-06T04:30:27;99783.84;;;0.22;56.39
54592;BME280;40488;48.558;18.150;2023-04-06T04:32:56;99788.09;;;0.23;56.51
54592;BME280;40488;48.558;18.150;2023-04-06T04:35:25;99773.72;;;0.19;56.52
54592;BME280;40488;48.558;18.150;2023-04-06T04:37:56;99790.88;;;0.29;56.43
54592;BME280;40488;48.558;18.150;2023-04-06T04:40:25;99790.97;;;0.32;56.17
54592;BME280;40488;48.558;18.150;2023-04-06T04:43:02;99794.53;;;0.37;56.37
54592;BME280;40488;48.558;18.150;2023-04-06T04:45:34;99786.31;;;0.41;56.27
54592;BME280;40488;48.558;18.150;2023-04-06T04:48:23;99787.44;;;0.47;56.27
54592;BME280;40488;48.558;18.150;2023-04-06T04:50:58;99785.84;;;0.49;56.29
54592;BME280;40488;48.558;18.150;2023-04-06T04:53:36;99755.97;;;0.35;56.40
54592;BME280;40488;48.558;18.150;2023-04-06T04:56:16;99789.53;;;0.57;56.34
54592;BME280;40488;48.558;18.150;2023-04-06T04:58:48;99793.84;;;0.60;56.51
54592;BME280;40488;48.558;18.150;2023-04-06T05:01:17;99791.50;;;0.64;56.47
54592;BME280;40488;48.558;18.150;2023-04-06T05:03:46;99786.84;;;0.74;56.51
54592;BME280;40488;48.558;18.150;2023-04-06T05:06:17;99778.38;;;0.72;56.29
54592;BME280;40488;48.558;18.150;2023-04-06T05:08:48;99772.84;;;0.80;56.62
54592;BME280;40488;48.558;18.150;2023-04-06T05:11:17;99768.09;;;0.86;56.61
54592;BME280;40488;48.558;18.150;2023-04-06T05:13:53;99771.72;;;0.94;56.37
54592;BME280;40488;48.558;18.150;2023-04-06T05:16:24;99768.91;;;1.07;56.28
54592;BME280;40488;48.558;18.150;2023-04-06T05:18:53;99761.66;;;1.15;56.38
54592;BME280;40488;48.558;18.150;2023-04-06T05:21:30;99758.28;;;1.37;56.11
54592;BME280;40488;48.558;18.150;2023-04-06T05:24:06;99758.81;;;1.52;55.31
54592;BME280;40488;48.558;18.150;2023-04-06T05:26:37;99757.66;;;1.66;55.37
54592;BME280;40488;48.558;18.150;2023-04-06T05:29:12;99754.91;;;1.82;54.95
54592;BME280;40488;48.558;18.150;2023-04-06T05:31:42;99752.81;;;1.94;55.37
54592;BME280;40488;48.558;18.150;2023-04-06T05:34:11;99755.03;;;2.10;54.93
54592;BME280;40488;48.558;18.150;2023-04-06T05:36:40;99743.75;;;2.24;54.32
54592;BME280;40488;48.558;18.150;2023-04-06T05:39:20;99746.97;;;2.45;53.46
54592;BME280;40488;48.558;18.150;2023-04-06T05:41:51;99735.59;;;2.56;53.52
54592;BME280;40488;48.558;18.150;2023-04-06T05:44:43;99741.28;;;2.78;52.42
54592;BME280;40488;48.558;18.150;2023-04-06T05:47:15;99730.06;;;2.95;51.75
54592;BME280;40488;48.558;18.150;2023-04-06T05:49:48;99744.09;;;3.15;51.87
54592;BME280;40488;48.558;18.150;2023-04-06T05:52:26;99727.63;;;3.26;50.89
54592;BME280;40488;48.558;18.150;2023-04-06T05:54:56;99745.25;;;3.54;50.41
54592;BME280;40488;48.558;18.150;2023-04-06T05:57:25;99739.91;;;3.73;49.14
54592;BME280;40488;48.558;18.150;2023-04-06T05:59:54;99740.13;;;3.81;49.34
54592;BME280;40488;48.558;18.150;2023-04-06T06:02:30;99736.25;;;3.93;48.81
54592;BME280;40488;48.558;18.150;2023-04-06T06:04:59;99724.66;;;4.01;48.42
54592;BME280;40488;48.558;18.150;2023-04-06T06:07:28;99716.19;;;3.99;48.30
54592;BME280;40488;48.558;18.150;2023-04-06T06:10:02;99724.19;;;4.15;47.50
54592;BME280;40488;48.558;18.150;2023-04-06T06:12:36;99717.81;;;4.30;47.83
54592;BME280;40488;48.558;18.150;2023-04-06T06:15:05;99729.78;;;4.37;47.48
54592;BME280;40488;48.558;18.150;2023-04-06T06:17:38;99722.41;;;4.45;46.80
54592;BME280;40488;48.558;18.150;2023-04-06T06:20:08;99709.16;;;4.55;46.19
54592;BME280;40488;48.558;18.150;2023-04-06T06:22:37;99705.03;;;4.58;46.39
54592;BME280;40488;48.558;18.150;2023-04-06T06:25:13;99720.47;;;4.70;46.28
54592;BME280;40488;48.558;18.150;2023-04-06T06:27:45;99709.56;;;4.73;45.69
54592;BME280;40488;48.558;18.150;2023-04-06T06:30:17;99709.72;;;4.79;45.86
54592;BME280;40488;48.558;18.150;2023-04-06T06:32:50;99705.53;;;4.80;45.55
54592;BME280;40488;48.558;18.150;2023-04-06T06:35:19;99711.31;;;4.74;45.73
54592;BME280;40488;48.558;18.150;2023-04-06T06:37:49;99708.75;;;4.72;45.39
54592;BME280;40488;48.558;18.150;2023-04-06T06:40:23;99704.69;;;4.79;45.44
54592;BME280;40488;48.558;18.150;2023-04-06T06:42:54;99699.63;;;4.81;45.69
54592;BME280;40488;48.558;18.150;2023-04-06T06:45:34;99701.38;;;4.83;45.16
54592;BME280;40488;48.558;18.150;2023-04-06T06:48:03;99703.22;;;4.89;45.01
54592;BME280;40488;48.558;18.150;2023-04-06T06:50:31;99694.91;;;4.94;45.07
54592;BME280;40488;48.558;18.150;2023-04-06T06:53:00;99701.75;;;5.00;45.13
54592;BME280;40488;48.558;18.150;2023-04-06T06:55:30;99700.94;;;5.01;45.00
54592;BME280;40488;48.558;18.150;2023-04-06T06:57:59;99702.91;;;5.14;45.19
54592;BME280;40488;48.558;18.150;2023-04-06T07:00:28;99696.44;;;5.28;45.53
54592;BME280;40488;48.558;18.150;2023-04-06T07:02:58;99678.72;;;5.26;45.31
54592;BME280;40488;48.558;18.150;2023-04-06T07:05:27;99700.75;;;5.32;44.80
54592;BME280;40488;48.558;18.150;2023-04-06T07:07:58;99699.09;;;5.32;44.68
54592;BME280;40488;48.558;18.150;2023-04-06T07:10:27;99702.53;;;5.37;45.14
54592;BME280;40488;48.558;18.150;2023-04-06T07:12:57;99701.03;;;5.46;44.86
54592;BME280;40488;48.558;18.150;2023-04-06T07:15:27;99692.56;;;5.43;44.66
54592;BME280;40488;48.558;18.150;2023-04-06T07:17:56;99703.56;;;5.46;44.44
54592;BME280;40488;48.558;18.150;2023-04-06T07:20:24;99702.84;;;5.53;44.40
54592;BME280;40488;48.558;18.150;2023-04-06T07:22:55;99708.16;;;5.65;44.51
54592;BME280;40488;48.558;18.150;2023-04-06T07:25:24;99709.16;;;5.73;43.91
54592;BME280;40488;48.558;18.150;2023-04-06T07:27:53;99704.81;;;5.66;44.12
54592;BME280;40488;48.558;18.150;2023-04-06T07:30:25;99705.69;;;5.66;43.74
54592;BME280;40488;48.558;18.150;2023-04-06T07:32:57;99715.09;;;5.75;43.76
54592;BME280;40488;48.558;18.150;2023-04-06T07:35:28;99701.72;;;5.82;44.45
54592;BME280;40488;48.558;18.150;2023-04-06T07:37:57;99707.75;;;5.85;43.96
54592;BME280;40488;48.558;18.150;2023-04-06T07:40:27;99700.34;;;5.96;44.29
54592;BME280;40488;48.558;18.150;2023-04-06T07:42:57;99702.09;;;6.00;43.54
54592;BME280;40488;48.558;18.150;2023-04-06T07:45:27;99695.41;;;6.02;43.76
54592;BME280;40488;48.558;18.150;2023-04-06T07:47:58;99693.81;;;6.10;43.76
54592;BME280;40488;48.558;18.150;2023-04-06T07:50:27;99694.81;;;6.17;43.19
54592;BME280;40488;48.558;18.150;2023-04-06T07:52:57;99704.09;;;6.19;43.47
54592;BME280;40488;48.558;18.150;2023-04-06T07:55:26;99697.44;;;6.24;42.97
54592;BME280;40488;48.558;18.150;2023-04-06T07:57:55;99697.56;;;6.30;43.16
54592;BME280;40488;48.558;18.150;2023-04-06T08:00:24;99690.09;;;6.39;43.06
54592;BME280;40488;48.558;18.150;2023-04-06T08:02:54;99688.38;;;6.38;42.49
54592;BME280;40488;48.558;18.150;2023-04-06T08:05:23;99699.25;;;6.31;42.63
54592;BME280;40488;48.558;18.150;2023-04-06T08:07:51;99692.63;;;6.38;42.50
54592;BME280;40488;48.558;18.150;2023-04-06T08:10:20;99698.75;;;6.53;42.69
54592;BME280;40488;48.558;18.150;2023-04-06T08:12:49;99692.28;;;6.72;42.59
54592;BME280;40488;48.558;18.150;2023-04-06T08:15:18;99700.00;;;6.80;42.63
54592;BME280;40488;48.558;18.150;2023-04-06T08:17:46;99695.03;;;6.86;42.36
54592;BME280;40488;48.558;18.150;2023-04-06T08:20:17;99698.78;;;7.12;42.23
54592;BME280;40488;48.558;18.150;2023-04-06T08:22:45;99695.31;;;7.05;42.13
54592;BME280;40488;48.558;18.150;2023-04-06T08:25:16;99692.03;;;7.14;42.04
54592;BME280;40488;48.558;18.150;2023-04-06T08:27:45;99690.53;;;7.28;41.95
54592;BME280;40488;48.558;18.150;2023-04-06T08:30:14;99705.09;;;7.41;42.14
54592;BME280;40488;48.558;18.150;2023-04-06T08:32:43;99695.53;;;7.22;40.84
54592;BME280;40488;48.558;18.150;2023-04-06T08:35:12;99697.97;;;7.16;41.48
54592;BME280;40488;48.558;18.150;2023-04-06T08:37:42;99686.28;;;7.27;41.10
54592;BME280;40488;48.558;18.150;2023-04-06T08:40:11;99683.81;;;7.33;41.34
54592;BME280;40488;48.558;18.150;2023-04-06T08:42:44;99649.03;;;7.24;41.12
54592;BME280;40488;48.558;18.150;2023-04-06T08:45:17;99682.25;;;7.44;41.45
54592;BME280;40488;48.558;18.150;2023-04-06T08:47:50;99679.19;;;7.72;41.96
54592;BME280;40488;48.558;18.150;2023-04-06T08:50:20;99682.59;;;7.74;41.73
54592;BME280;40488;48.558;18.150;2023-04-06T08:52:51;99676.75;;;7.81;40.87
54592;BME280;40488;48.558;18.150;2023-04-06T08:55:20;99672.69;;;7.98;40.62
54592;BME280;40488;48.558;18.150;2023-04-06T08:57:50;99669.41;;;8.08;40.92
54592;BME280;40488;48.558;18.150;2023-04-06T09:00:22;99664.50;;;8.27;41.22
54592;BME280;40488;48.558;18.150;2023-04-06T09:02:54;99660.91;;;8.11;40.19
54592;BME280;40488;48.558;18.150;2023-04-06T09:05:25;99664.31;;;8.08;39.83
54592;BME280;40488;48.558;18.150;2023-04-06T09:07:55;99657.50;;;8.09;40.30
54592;BME280;40488;48.558;18.150;2023-04-06T09:10:24;99661.06;;;8.25;40.44
54592;BME280;40488;48.558;18.150;2023-04-06T09:13:03;99659.44;;;8.30;39.84
54592;BME280;40488;48.558;18.150;2023-04-06T09:15:32;99651.00;;;8.40;40.25
54592;BME280;40488;48.558;18.150;2023-04-06T09:18:01;99657.88;;;8.50;40.24
54592;BME280;40488;48.558;18.150;2023-04-06T09:20:30;99659.56;;;8.48;39.93
54592;BME280;40488;48.558;18.150;2023-04-06T09:23:00;99654.31;;;8.27;38.94
54592;BME280;40488;48.558;18.150;2023-04-06T09:25:30;99649.31;;;8.36;39.25
54592;BME280;40488;48.558;18.150;2023-04-06T09:28:00;99650.19;;;8.39;39.54
54592;BME280;40488;48.558;18.150;2023-04-06T09:30:29;99636.72;;;8.49;39.05
54592;BME280;40488;48.558;18.150;2023-04-06T09:32:58;99640.78;;;8.31;38.18
54592;BME280;40488;48.558;18.150;2023-04-06T09:35:27;99635.72;;;8.34;38.51
54592;BME280;40488;48.558;18.150;2023-04-06T09:38:11;99644.91;;;8.21;37.59
54592;BME280;40488;48.558;18.150;2023-04-06T09:40:50;99628.97;;;8.36;38.30
54592;BME280;40488;48.558;18.150;2023-04-06T09:43:26;99637.44;;;8.35;37.83
54592;BME280;40488;48.558;18.150;2023-04-06T09:45:56;99635.91;;;8.58;38.30
54592;BME280;40488;48.558;18.150;2023-04-06T09:48:26;99636.00;;;8.73;38.18
54592;BME280;40488;48.558;18.150;2023-04-06T09:50:59;99629.19;;;8.66;38.51
54592;BME280;40488;48.558;18.150;2023-04-06T09:53:31;99622.47;;;8.83;38.76
54592;BME280;40488;48.558;18.150;2023-04-06T09:56:03;99626.69;;;8.81;38.24
54592;BME280;40488;48.558;18.150;2023-04-06T09:58:37;99614.81;;;8.77;37.39
54592;BME280;40488;48.558;18.150;2023-04-06T10:01:11;99623.22;;;8.62;36.90
54592;BME280;40488;48.558;18.150;2023-04-06T10:03:45;99618.03;;;8.49;36.68
54592;BME280;40488;48.558;18.150;2023-04-06T10:06:21;99610.41;;;8.49;37.53
54592;BME280;40488;48.558;18.150;2023-04-06T10:08:56;99615.56;;;8.61;36.92
54592;BME280;40488;48.558;18.150;2023-04-06T10:11:26;99613.09;;;8.68;37.17
54592;BME280;40488;48.558;18.150;2023-04-06T10:13:55;99624.19;;;8.84;37.82
54592;BME280;40488;48.558;18.150;2023-04-06T10:16:25;99613.16;;;8.88;37.74
54592;BME280;40488;48.558;18.150;2023-04-06T10:19:00;99607.31;;;9.10;37.33
54592;BME280;40488;48.558;18.150;2023-04-06T10:21:32;99608.19;;;9.21;37.27
54592;BME280;40488;48.558;18.150;2023-04-06T10:24:07;99610.78;;;9.27;36.35
54592;BME280;40488;48.558;18.150;2023-04-06T10:26:39;99588.72;;;9.23;36.64
54592;BME280;40488;48.558;18.150;2023-04-06T10:29:08;99593.81;;;9.32;36.42
54592;BME280;40488;48.558;18.150;2023-04-06T10:31:41;99587.06;;;9.43;35.62
54592;BME280;40488;48.558;18.150;2023-04-06T10:34:11;99587.09;;;9.68;36.73
54592;BME280;40488;48.558;18.150;2023-04-06T10:36:40;99576.06;;;9.72;35.53
54592;BME280;40488;48.558;18.150;2023-04-06T10:39:10;99577.78;;;9.83;35.63
54592;BME280;40488;48.558;18.150;2023-04-06T10:41:42;99576.91;;;9.80;35.89
54592;BME280;40488;48.558;18.150;2023-04-06T10:44:17;99577.78;;;9.83;35.39
54592;BME280;40488;48.558;18.150;2023-04-06T10:46:56;99570.13;;;9.73;35.67
54592;BME280;40488;48.558;18.150;2023-04-06T10:49:27;99574.38;;;9.95;35.38
54592;BME280;40488;48.558;18.150;2023-04-06T10:51:57;99581.19;;;10.09;35.12
54592;BME280;40488;48.558;18.150;2023-04-06T10:54:27;99573.53;;;10.20;34.90
54592;BME280;40488;48.558;18.150;2023-04-06T10:56:59;99570.97;;;10.41;35.66
54592;BME280;40488;48.558;18.150;2023-04-06T10:59:28;99565.03;;;10.27;34.94
54592;BME280;40488;48.558;18.150;2023-04-06T11:01:57;99563.34;;;10.14;34.55
54592;BME280;40488;48.558;18.150;2023-04-06T11:04:26;99565.91;;;10.14;35.22
54592;BME280;40488;48.558;18.150;2023-04-06T11:06:55;99556.53;;;10.28;34.60
54592;BME280;40488;48.558;18.150;2023-04-06T11:09:24;99559.06;;;9.89;34.53
54592;BME280;40488;48.558;18.150;2023-04-06T11:11:55;99530.19;;;9.52;33.60
54592;BME280;40488;48.558;18.150;2023-04-06T11:14:24;99566.72;;;9.77;34.01
54592;BME280;40488;48.558;18.150;2023-04-06T11:16:54;99554.84;;;9.85;34.66
54592;BME280;40488;48.558;18.150;2023-04-06T11:19:24;99556.53;;;9.98;34.69
54592;BME280;40488;48.558;18.150;2023-04-06T11:21:53;99548.88;;;9.92;34.88
54592;BME280;40488;48.558;18.150;2023-04-06T11:24:25;99554.84;;;10.00;34.88
54592;BME280;40488;48.558;18.150;2023-04-06T11:26:56;99544.63;;;10.09;35.09
54592;BME280;40488;48.558;18.150;2023-04-06T11:29:26;99544.63;;;10.27;35.33
54592;BME280;40488;48.558;18.150;2023-04-06T11:31:58;99543.78;;;10.36;35.29
54592;BME280;40488;48.558;18.150;2023-04-06T11:34:29;99544.63;;;10.27;34.81
54592;BME280;40488;48.558;18.150;2023-04-06T11:36:59;99542.09;;;10.18;34.97
54592;BME280;40488;48.558;18.150;2023-04-06T11:39:29;99549.72;;;10.03;34.64
54592;BME280;40488;48.558;18.150;2023-04-06T11:42:01;99541.22;;;10.04;34.67
54592;BME280;40488;48.558;18.150;2023-04-06T11:44:36;99536.13;;;10.04;34.89
54592;BME280;40488;48.558;18.150;2023-04-06T11:47:07;99532.75;;;9.90;35.68
54592;BME280;40488;48.558;18.150;2023-04-06T11:49:36;99537.84;;;9.87;34.61
54592;BME280;40488;48.558;18.150;2023-04-06T11:52:15;99530.22;;;9.81;35.47
54592;BME280;40488;48.558;18.150;2023-04-06T11:54:45;99531.91;;;9.83;35.49
54592;BME280;40488;48.558;18.150;2023-04-06T11:57:16;99529.34;;;9.83;35.89
54592;BME280;40488;48.558;18.150;2023-04-06T11:59:45;99528.47;;;9.81;35.13
54592;BME280;40488;48.558;18.150;2023-04-06T12:02:14;99531.03;;;9.68;35.12
54592;BME280;40488;48.558;18.150;2023-04-06T12:04:43;99525.09;;;9.72;35.97
54592;BME280;40488;48.558;18.150;2023-04-06T12:07:13;99522.56;;;9.60;36.99
54592;BME280;40488;48.558;18.150;2023-04-06T12:09:42;99527.66;;;9.57;36.30
54592;BME280;40488;48.558;18.150;2023-04-06T12:12:11;99531.03;;;9.68;36.72
54592;BME280;40488;48.558;18.150;2023-04-06T12:14:41;99525.09;;;9.69;36.36
54592;BME280;40488;48.558;18.150;2023-04-06T12:17:10;99518.28;;;9.72;36.98
54592;BME280;40488;48.558;18.150;2023-04-06T12:19:38;99530.19;;;9.90;36.60
54592;BME280;40488;48.558;18.150;2023-04-06T12:22:07;99529.34;;;9.91;36.54
54592;BME280;40488;48.558;18.150;2023-04-06T12:24:36;99517.44;;;9.87;36.02
54592;BME280;40488;48.558;18.150;2023-04-06T12:27:05;99526.78;;;10.00;36.68
54592;BME280;40488;48.558;18.150;2023-04-06T12:29:37;99524.25;;;10.24;37.03
54592;BME280;40488;48.558;18.150;2023-04-06T12:32:09;99512.31;;;10.35;36.20
54592;BME280;40488;48.558;18.150;2023-04-06T12:34:47;99514.00;;;10.30;36.83
54592;BME280;40488;48.558;18.150;2023-04-06T12:37:16;99517.41;;;10.32;36.26
54592;BME280;40488;48.558;18.150;2023-04-06T12:39:45;99512.34;;;10.17;36.16
54592;BME280;40488;48.558;18.150;2023-04-06T12:42:14;99512.31;;;10.11;36.25
54592;BME280;40488;48.558;18.150;2023-04-06T12:44:43;99510.63;;;10.01;36.26
54592;BME280;40488;48.558;18.150;2023-04-06T12:47:14;99510.63;;;9.89;37.12
54592;BME280;40488;48.558;18.150;2023-04-06T12:49:44;99510.66;;;9.80;36.18
54592;BME280;40488;48.558;18.150;2023-04-06T12:52:13;99510.66;;;9.74;35.75
54592;BME280;40488;48.558;18.150;2023-04-06T12:54:42;99488.56;;;9.52;37.08
54592;BME280;40488;48.558;18.150;2023-04-06T12:57:12;99510.66;;;9.59;36.35
54592;BME280;40488;48.558;18.150;2023-04-06T12:59:43;99510.66;;;9.50;37.17
54592;BME280;40488;48.558;18.150;2023-04-06T13:02:13;99515.72;;;9.48;37.13
54592;BME280;40488;48.558;18.150;2023-04-06T13:04:43;99523.38;;;9.39;37.31
54592;BME280;40488;48.558;18.150;2023-04-06T13:07:12;99515.72;;;9.25;37.35
54592;BME280;40488;48.558;18.150;2023-04-06T13:09:41;99517.41;;;9.20;37.06
54592;BME280;40488;48.558;18.150;2023-04-06T13:12:10;99531.78;;;9.05;37.07
54592;BME280;40488;48.558;18.150;2023-04-06T13:14:40;99520.72;;;8.92;37.73
54592;BME280;40488;48.558;18.150;2023-04-06T13:17:08;99528.31;;;8.75;38.36
54592;BME280;40488;48.558;18.150;2023-04-06T13:19:39;99526.53;;;8.58;38.04
54592;BME280;40488;48.558;18.150;2023-04-06T13:22:08;99538.31;;;8.45;38.09